Terminal Aerodrome Forecast
Issued by NWS Sterling, VA

Home | Current Version | Previous Version | Text Only | Print | Product List | Glossary On
Versions: 1 2 3 4 5 6 7 8 9 10 11 12 13 14 15 16 17 18 19 20 21
871
FTUS41 KLWX 250536
TAFBWI
TAF
KBWI 250536Z 2506/2612 23006KT P6SM BKN130 WS020/25035KT
     FM250700 23006KT P6SM BKN130
     FM252200 17004KT P6SM OVC050
     FM260200 10006KT P6SM OVC015
     FM260400 10007KT P6SM OVC008
     FM260600 09008KT 4SM -DZ OVC008=

USA.gov is the U.S. government's official web portal to all federal, state and local government web resources and services.